Time;durP1;ratioP1;P1;durP2;ratioP2;P2;SDS_P1;SDS_P2;PMS_P1;PMS_P2;Temp;Humidity;BMP_temperature;BMP_pressure;BME280_temperature;BME280_humidity;BME280_pressure;Samples;Min_cycle;Max_cycle;Signal;HPM_P1;HPM_P2
2023/06/20 00:00:06;;;;;;;4.57;3.80;;;24.90;99.90;;;25.36;nan;100183.84;4986203;28;20646;-68
2023/06/20 00:02:33;;;;;;;5.50;4.03;;;24.80;99.90;;;25.29;nan;100190.28;4983834;28;20648;-67
2023/06/20 00:05:02;;;;;;;3.93;3.53;;;24.80;99.90;;;25.26;nan;100198.72;4966630;28;21099;-68
2023/06/20 00:07:29;;;;;;;5.20;3.67;;;24.70;99.90;;;25.21;nan;100218.03;4988673;28;20670;-68
2023/06/20 00:09:56;;;;;;;3.17;2.90;;;24.70;99.90;;;25.12;nan;100227.34;4990670;28;20634;-67
2023/06/20 00:12:23;;;;;;;3.30;3.00;;;24.60;99.90;;;25.08;nan;100226.16;4989541;28;20642;-68
2023/06/20 00:14:50;;;;;;;4.20;3.20;;;24.50;99.90;;;25.00;nan;100228.25;4991109;28;20661;-67
2023/06/20 00:17:18;;;;;;;3.70;2.97;;;24.40;99.90;;;24.87;nan;100238.97;4981099;28;20646;-67
2023/06/20 00:19:45;;;;;;;5.53;3.90;;;24.30;99.90;;;24.78;nan;100261.59;4990184;28;20618;-67
2023/06/20 00:22:12;;;;;;;3.40;2.90;;;24.20;99.90;;;24.63;nan;100270.66;4991807;28;20622;-68
2023/06/20 00:24:39;;;;;;;4.67;3.77;;;24.20;99.90;;;24.48;nan;100277.25;4988508;28;21323;-67
2023/06/20 00:27:06;;;;;;;4.93;3.47;;;24.00;99.90;;;24.19;nan;100280.38;4991421;28;20614;-68
2023/06/20 00:29:33;;;;;;;5.33;4.20;;;23.70;99.90;;;23.94;nan;100264.13;4983852;28;20642;-68
2023/06/20 00:32:00;;;;;;;6.67;3.77;;;23.40;99.90;;;23.83;nan;100246.09;4972295;28;20638;-68
2023/06/20 00:34:27;;;;;;;6.87;5.10;;;23.30;99.90;;;23.84;nan;100237.09;4985328;28;20654;-67
2023/06/20 00:36:54;;;;;;;4.70;4.17;;;23.30;99.90;;;23.89;nan;100231.97;4985945;28;20653;-69
2023/06/20 00:39:21;;;;;;;5.87;4.57;;;23.30;99.90;;;23.88;nan;100217.00;4991455;28;20644;-68
2023/06/20 00:41:49;;;;;;;6.10;4.47;;;23.30;99.90;;;23.96;nan;100218.66;4989101;28;20638;-68
2023/06/20 00:44:15;;;;;;;5.43;3.87;;;23.40;99.90;;;23.89;nan;100214.13;4972144;28;20641;-68
2023/06/20 00:46:43;;;;;;;5.03;3.90;;;23.40;99.90;;;23.78;nan;100192.63;4991167;28;21212;-69
2023/06/20 00:49:11;;;;;;;6.77;4.40;;;23.30;99.90;;;23.75;nan;100191.19;4991886;28;20665;-69
2023/06/20 00:51:38;;;;;;;6.07;4.10;;;23.20;99.90;;;23.76;nan;100202.69;4995468;28;20630;-68
2023/06/20 00:54:06;;;;;;;4.90;4.37;;;23.20;99.90;;;23.79;nan;100212.91;4988754;28;20670;-68
2023/06/20 00:56:33;;;;;;;6.70;4.30;;;23.20;99.90;;;23.82;nan;100202.69;4973528;28;20614;-69
2023/06/20 00:59:03;;;;;;;5.90;4.43;;;23.30;99.90;;;23.79;nan;100216.41;4989967;28;20645;-68
2023/06/20 01:01:31;;;;;;;6.93;4.53;;;23.30;99.90;;;23.76;nan;100216.81;4986154;28;20646;-68
2023/06/20 01:04:00;;;;;;;9.60;4.60;;;23.30;99.90;;;23.75;nan;100211.69;4988021;28;20650;-67
2023/06/20 01:06:59;;;;;;;6.23;5.60;;;23.20;99.90;;;23.78;nan;100209.44;4989933;28;20620;-69
2023/06/20 01:09:34;;;;;;;5.40;3.77;;;23.20;99.90;;;23.83;nan;100206.13;4984046;28;21065;-69
2023/06/20 01:12:15;;;;;;;4.83;4.07;;;23.30;99.90;;;23.83;nan;100198.16;4990261;28;20629;-69
2023/06/20 01:15:25;;;;;;;5.83;5.07;;;23.30;99.90;;;23.87;nan;100202.06;4972009;28;21287;-68
2023/06/20 01:18:14;;;;;;;5.03;4.50;;;23.30;99.90;;;23.87;nan;100199.41;4973476;28;21166;-68
2023/06/20 01:21:02;;;;;;;10.90;5.60;;;23.30;99.90;;;23.90;nan;100202.47;4988523;28;20618;-68
2023/06/20 01:23:35;;;;;;;7.40;4.90;;;23.30;99.90;;;23.97;nan;100205.13;4956748;28;20630;-68
2023/06/20 01:26:05;;;;;;;6.30;5.20;;;23.40;99.90;;;24.03;nan;100198.94;4963708;28;21247;-68
2023/06/20 01:28:40;;;;;;;9.20;6.10;;;23.50;99.90;;;24.11;nan;100206.75;4985076;28;20711;-68
2023/06/20 01:31:24;;;;;;;5.37;4.80;;;23.50;99.90;;;24.09;nan;100202.66;4988127;28;20984;-69
2023/06/20 01:33:57;;;;;;;5.00;4.47;;;23.60;99.90;;;24.03;nan;100209.63;5005281;28;20614;-66
2023/06/20 01:36:29;;;;;;;8.17;4.47;;;23.50;99.90;;;24.00;nan;100215.34;4974661;28;21013;-68
2023/06/20 01:39:02;;;;;;;8.90;5.07;;;23.50;99.90;;;23.90;nan;100215.78;4987031;28;21229;-68
2023/06/20 01:41:30;;;;;;;7.87;4.93;;;23.40;99.90;;;23.84;nan;100216.59;4974109;28;20629;-68
2023/06/20 01:44:01;;;;;;;6.80;5.13;;;23.40;99.90;;;23.77;nan;100215.78;4989190;28;21338;-68
2023/06/20 01:46:32;;;;;;;5.80;4.40;;;23.30;99.90;;;23.72;nan;100204.91;5010341;28;20621;-68
2023/06/20 01:49:01;;;;;;;7.17;5.07;;;23.20;99.90;;;23.72;nan;100206.78;4978410;28;21092;-68
2023/06/20 01:51:30;;;;;;;9.20;4.97;;;23.20;99.90;;;23.70;nan;100219.47;4981943;28;20987;-67
2023/06/20 01:54:01;;;;;;;11.20;5.97;;;23.20;99.90;;;23.70;nan;100222.16;4969967;28;20638;-67
2023/06/20 01:56:30;;;;;;;8.40;5.73;;;23.10;99.90;;;23.64;nan;100214.94;4991445;28;21013;-68
2023/06/20 01:59:00;;;;;;;8.67;6.33;;;23.10;99.90;;;23.62;nan;100222.31;4972967;28;20639;-68
2023/06/20 02:01:29;;;;;;;6.97;5.43;;;23.10;99.90;;;23.58;nan;100223.75;4991893;28;20638;-67
2023/06/20 02:03:57;;;;;;;6.03;5.17;;;23.10;99.90;;;23.58;nan;100218.44;4970975;28;20635;-68
2023/06/20 02:06:26;;;;;;;7.43;5.90;;;23.10;99.90;;;23.54;nan;100218.03;4984094;28;20633;-68
2023/06/20 02:08:55;;;;;;;7.87;6.17;;;23.00;99.90;;;23.54;nan;100214.53;4991510;28;20674;-66
2023/06/20 02:11:23;;;;;;;8.77;6.30;;;23.00;99.90;;;23.56;nan;100228.47;5003133;28;20613;-68
2023/06/20 02:13:50;;;;;;;11.50;6.97;;;23.00;99.90;;;23.59;nan;100223.59;4993081;28;21019;-67
2023/06/20 02:16:21;;;;;;;7.93;5.03;;;23.00;99.90;;;23.61;nan;100231.34;4981008;28;20674;-68
2023/06/20 02:18:49;;;;;;;7.20;6.03;;;23.00;99.90;;;23.64;nan;100225.59;4975112;28;20658;-67
2023/06/20 02:21:23;;;;;;;7.43;6.23;;;23.10;99.90;;;23.66;nan;100228.91;4992300;28;21392;-67
2023/06/20 02:23:52;;;;;;;8.97;6.63;;;23.10;99.90;;;23.67;nan;100220.72;4991927;28;20594;-70
2023/06/20 02:26:26;;;;;;;8.00;6.30;;;23.10;99.90;;;23.73;nan;100227.06;4974659;28;20666;-68
2023/06/20 02:28:58;;;;;;;9.03;6.73;;;23.20;99.90;;;23.73;nan;100224.38;4997395;28;20649;-67
2023/06/20 02:31:31;;;;;;;10.00;6.40;;;23.20;99.90;;;23.74;nan;100234.03;4992595;28;20634;-68
2023/06/20 02:34:02;;;;;;;8.77;6.67;;;23.20;99.90;;;23.76;nan;100229.31;4991722;28;20676;-66
2023/06/20 02:36:30;;;;;;;8.00;5.50;;;23.20;99.90;;;23.77;nan;100238.94;4992224;28;20646;-67
2023/06/20 02:38:57;;;;;;;8.50;6.03;;;23.20;99.90;;;23.76;nan;100234.66;4975969;28;20657;-67
2023/06/20 02:41:24;;;;;;;9.13;6.30;;;23.20;99.90;;;23.73;nan;100230.53;5000836;28;20648;-68
2023/06/20 02:43:52;;;;;;;9.13;7.00;;;23.20;99.90;;;23.67;nan;100214.56;4996739;28;21025;-67
2023/06/20 02:46:33;;;;;;;8.53;6.30;;;23.20;99.90;;;23.63;nan;100208.81;4993583;28;20662;-68
2023/06/20 02:49:34;;;;;;;8.50;6.23;;;23.10;99.90;;;23.59;nan;100212.09;4974853;28;20693;-69
2023/06/20 02:52:36;;;;;;;10.20;6.40;;;23.10;99.90;;;23.60;nan;100203.91;4959839;28;20639;-69
2023/06/20 02:55:21;;;;;;;7.47;5.60;;;23.10;99.90;;;23.60;nan;100206.56;4992212;28;20649;-67
2023/06/20 02:57:56;;;;;;;7.83;5.13;;;23.10;99.90;;;23.49;nan;100217.03;4984242;28;21125;-67
2023/06/20 03:00:25;;;;;;;6.67;4.87;;;23.00;99.90;;;23.37;nan;100218.63;4992780;28;20628;-67
2023/06/20 03:02:58;;;;;;;14.73;7.10;;;22.90;99.90;;;23.26;nan;100227.16;4989064;28;20653;-67
2023/06/20 03:05:28;;;;;;;7.37;5.67;;;22.80;99.90;;;23.18;nan;100230.84;4973803;28;21031;-69
2023/06/20 03:07:56;;;;;;;8.60;6.50;;;22.70;99.90;;;23.20;nan;100230.63;4988700;28;21227;-67
2023/06/20 03:10:24;;;;;;;7.80;6.00;;;22.70;99.90;;;23.17;nan;100228.38;4977616;28;20648;-67
2023/06/20 03:12:51;;;;;;;7.17;4.40;;;22.70;99.90;;;23.08;nan;100233.88;4994642;28;20636;-67
2023/06/20 03:15:18;;;;;;;7.20;4.40;;;22.60;99.90;;;22.99;nan;100229.78;4996035;28;21011;-68
2023/06/20 03:17:45;;;;;;;6.70;5.43;;;22.50;99.90;;;22.89;nan;100237.28;4990490;28;21194;-67
2023/06/20 03:20:13;;;;;;;8.73;4.97;;;22.40;99.90;;;22.80;nan;100233.19;4991201;28;20618;-67
2023/06/20 03:22:40;;;;;;;6.77;4.60;;;22.40;99.90;;;22.71;nan;100239.69;4981672;28;20631;-67
2023/06/20 03:25:07;;;;;;;6.80;4.90;;;22.30;99.90;;;22.62;nan;100240.03;4997549;28;20664;-66
2023/06/20 03:27:34;;;;;;;6.97;4.73;;;22.10;99.90;;;22.58;nan;100241.41;4997064;28;20635;-67
2023/06/20 03:30:03;;;;;;;6.00;4.70;;;22.10;99.90;;;22.54;nan;100243.66;4991468;28;20662;-68
2023/06/20 03:32:30;;;;;;;7.73;5.00;;;22.10;99.90;;;22.52;nan;100251.00;4990341;28;20650;-68
2023/06/20 03:34:57;;;;;;;6.30;4.87;;;22.00;99.90;;;22.51;nan;100238.72;4990240;28;20673;-68
2023/06/20 03:37:24;;;;;;;7.87;5.77;;;22.00;99.90;;;22.49;nan;100243.41;5010040;28;20645;-68
2023/06/20 03:39:51;;;;;;;7.00;4.60;;;22.00;99.90;;;22.48;nan;100233.00;4995652;28;20634;-68
2023/06/20 03:42:18;;;;;;;8.40;5.13;;;22.00;99.90;;;22.47;nan;100236.69;4990516;28;20660;-68
2023/06/20 03:44:45;;;;;;;6.70;4.83;;;22.00;99.90;;;22.47;nan;100231.38;4990054;28;20672;-68
2023/06/20 03:47:12;;;;;;;8.30;5.20;;;22.00;99.90;;;22.45;nan;100222.72;4970917;28;20657;-68
2023/06/20 03:49:39;;;;;;;7.17;5.30;;;22.00;99.90;;;22.45;nan;100223.56;4989602;28;21100;-67
2023/06/20 03:52:08;;;;;;;5.67;4.97;;;22.00;99.90;;;22.46;nan;100222.56;4990184;28;21190;-68
2023/06/20 03:54:37;;;;;;;7.77;5.40;;;22.00;99.90;;;22.46;nan;100222.56;4989995;28;20662;-67
2023/06/20 03:57:04;;;;;;;6.90;5.03;;;21.90;99.90;;;22.47;nan;100231.38;4988693;28;20630;-67
2023/06/20 03:59:31;;;;;;;6.50;4.80;;;21.90;99.90;;;22.49;nan;100230.13;4982823;28;20661;-67
2023/06/20 04:01:58;;;;;;;7.77;5.40;;;22.00;99.90;;;22.49;nan;100230.13;4986169;28;20622;-66
2023/06/20 04:04:25;;;;;;;6.33;4.77;;;22.00;99.90;;;22.51;nan;100227.28;4979517;28;21238;-68
2023/06/20 04:06:52;;;;;;;5.37;4.83;;;22.00;99.90;;;22.57;nan;100224.66;4984132;28;20646;-69
2023/06/20 04:09:19;;;;;;;4.07;3.60;;;22.10;99.90;;;22.64;nan;100222.03;4971320;28;20689;-68
2023/06/20 04:11:46;;;;;;;9.17;5.50;;;22.10;99.90;;;22.68;nan;100233.94;4993446;28;20642;-68
2023/06/20 04:14:13;;;;;;;6.30;4.27;;;22.20;99.90;;;22.79;nan;100236.84;4989620;28;21205;-67
2023/06/20 04:16:40;;;;;;;6.10;4.80;;;22.30;99.90;;;22.90;nan;100230.97;4992536;28;20638;-67
2023/06/20 04:19:07;;;;;;;9.07;5.73;;;22.40;99.90;;;23.00;nan;100231.41;4988266;28;20657;-67
2023/06/20 04:21:34;;;;;;;7.30;5.13;;;22.50;99.90;;;23.07;nan;100234.09;4996048;28;20618;-68
2023/06/20 04:24:01;;;;;;;6.20;4.77;;;22.60;99.90;;;23.17;nan;100229.19;4989437;28;20629;-66
2023/06/20 04:26:31;;;;;;;6.70;4.57;;;22.70;99.90;;;23.27;nan;100228.81;4983291;28;21041;-68
2023/06/20 04:28:58;;;;;;;4.70;4.17;;;22.70;99.90;;;23.44;nan;100236.25;4989733;28;21217;-68
2023/06/20 04:31:25;;;;;;;5.77;4.77;;;22.90;99.90;;;23.57;nan;100240.78;4989641;28;20637;-68
2023/06/20 04:33:54;;;;;;;7.30;5.40;;;23.00;99.90;;;23.62;nan;100232.97;4989489;28;20649;-68
2023/06/20 04:36:21;;;;;;;5.77;5.17;;;23.10;99.90;;;23.62;nan;100232.97;4988157;28;20670;-67
2023/06/20 04:38:48;;;;;;;5.90;4.43;;;23.10;99.90;;;23.59;nan;100234.22;4990019;28;20630;-68
2023/06/20 04:41:15;;;;;;;4.93;3.60;;;23.10;99.90;;;23.73;nan;100230.53;4987600;28;20653;-68
2023/06/20 04:43:44;;;;;;;10.77;3.93;;;23.20;99.90;;;23.69;nan;100223.16;4989415;28;20638;-67
2023/06/20 04:46:15;;;;;;;6.50;5.17;;;23.20;99.90;;;23.74;nan;100226.03;4998000;28;20661;-67
2023/06/20 04:48:44;;;;;;;7.10;5.27;;;23.20;99.90;;;23.80;nan;100226.03;5005470;28;20654;-67
2023/06/20 04:51:12;;;;;;;5.93;4.50;;;23.30;99.90;;;23.89;nan;100229.31;4988601;28;21044;-68
2023/06/20 04:53:39;;;;;;;5.80;4.70;;;23.40;99.90;;;24.00;nan;100226.00;4989483;28;20599;-68
2023/06/20 04:56:06;;;;;;;7.10;4.77;;;23.50;99.90;;;24.06;nan;100221.75;4985421;28;21033;-67
2023/06/20 04:58:33;;;;;;;5.47;4.40;;;23.60;99.90;;;24.18;nan;100223.56;4988044;28;20630;-67
2023/06/20 05:01:00;;;;;;;9.70;3.60;;;23.70;99.90;;;24.31;nan;100230.72;4986969;28;20655;-67
2023/06/20 05:03:27;;;;;;;5.27;4.30;;;23.80;99.90;;;24.47;nan;100233.75;4993162;28;20626;-68
2023/06/20 05:05:54;;;;;;;7.23;4.80;;;23.90;99.90;;;24.67;nan;100234.50;4994704;28;20681;-66
2023/06/20 05:08:22;;;;;;;8.13;4.70;;;24.10;99.90;;;24.94;nan;100237.09;4993707;28;20622;-68
2023/06/20 05:10:51;;;;;;;8.60;5.90;;;24.40;99.90;;;25.19;nan;100232.66;4996348;28;20669;-67
2023/06/20 05:13:21;;;;;;;7.43;4.70;;;24.60;99.90;;;25.38;nan;100231.72;4989608;28;20634;-66
2023/06/20 05:15:48;;;;;;;6.67;4.93;;;24.80;99.90;;;25.55;nan;100234.72;4988501;28;20663;-68
2023/06/20 05:18:15;;;;;;;6.90;4.17;;;25.00;99.90;;;25.65;nan;100233.19;4991817;28;20622;-67
2023/06/20 05:20:42;;;;;;;7.37;5.47;;;25.10;99.90;;;25.82;nan;100236.97;4999166;28;20648;-68
2023/06/20 05:23:09;;;;;;;6.70;5.10;;;25.30;99.90;;;25.97;nan;100234.78;4993638;28;20602;-67
2023/06/20 05:25:37;;;;;;;6.40;4.50;;;25.40;99.90;;;26.07;nan;100243.09;4994860;28;20676;-67
2023/06/20 05:28:04;;;;;;;7.60;4.77;;;25.60;99.90;;;25.97;nan;100255.34;4993321;28;20629;-67
2023/06/20 05:30:32;;;;;;;5.20;4.27;;;25.50;99.90;;;25.93;nan;100241.59;4995361;28;20673;-67
2023/06/20 05:32:59;;;;;;;6.73;4.50;;;25.40;99.90;;;26.02;nan;100248.28;4992121;28;20625;-67
2023/06/20 05:35:26;;;;;;;6.30;4.00;;;25.50;99.90;;;26.09;nan;100251.75;4989193;28;20670;-67
2023/06/20 05:37:53;;;;;;;5.80;4.23;;;25.60;99.90;;;26.05;nan;100252.38;4986017;28;20650;-68
2023/06/20 05:40:20;;;;;;;4.67;3.63;;;25.60;99.90;;;26.10;nan;100252.56;4987212;28;20639;-69
2023/06/20 05:42:47;;;;;;;6.20;4.60;;;25.60;99.90;;;26.20;nan;100257.41;4989070;28;21011;-67
2023/06/20 05:45:14;;;;;;;6.00;4.53;;;25.70;99.90;;;26.24;nan;100253.28;4985664;28;20673;-66
2023/06/20 05:47:44;;;;;;;8.13;4.67;;;25.70;99.90;;;26.31;nan;100254.00;4986437;28;21284;-64
2023/06/20 05:50:11;;;;;;;5.70;4.50;;;25.80;99.90;;;26.42;nan;100253.28;4986434;28;21293;-67
2023/06/20 05:52:38;;;;;;;7.27;4.73;;;25.90;99.90;;;26.58;nan;100256.19;4971262;28;20665;-67
2023/06/20 05:55:06;;;;;;;6.50;4.37;;;26.00;99.90;;;26.73;nan;100253.16;4990332;28;20654;-67
2023/06/20 05:57:33;;;;;;;4.97;4.30;;;26.20;99.90;;;26.98;nan;100256.59;4990942;28;20607;-67
2023/06/20 06:00:00;;;;;;;5.10;4.30;;;26.40;99.90;;;27.07;nan;100252.53;4995219;28;20633;-67
2023/06/20 06:02:27;;;;;;;5.43;4.43;;;26.50;99.90;;;27.24;nan;100260.75;4993291;28;20692;-67
2023/06/20 06:04:54;;;;;;;6.00;4.67;;;26.70;99.90;;;27.43;nan;100257.03;4989858;28;20666;-66
2023/06/20 06:07:21;;;;;;;6.50;4.50;;;26.90;99.90;;;27.59;nan;100257.19;4991239;28;20642;-68
2023/06/20 06:09:48;;;;;;;5.80;4.80;;;27.10;99.90;;;27.77;nan;100252.78;4990529;28;20655;-67
2023/06/20 06:12:15;;;;;;;7.90;4.27;;;27.20;99.90;;;28.02;nan;100259.59;4993106;28;20622;-67
2023/06/20 06:14:42;;;;;;;8.10;4.87;;;27.40;99.90;;;28.28;nan;100261.78;4995614;28;20669;-67
2023/06/20 06:17:09;;;;;;;5.27;4.67;;;27.70;99.90;;;28.47;nan;100270.56;4989223;28;21265;-68
2023/06/20 06:19:36;;;;;;;5.13;4.17;;;27.90;99.90;;;28.54;nan;100273.91;4989916;28;20642;-68
2023/06/20 06:22:04;;;;;;;4.60;3.90;;;27.90;99.90;;;28.83;nan;100272.97;4991810;28;20622;-68
2023/06/20 06:24:31;;;;;;;5.33;3.67;;;28.20;99.90;;;29.32;nan;100274.22;5008402;28;20657;-69
2023/06/20 06:26:58;;;;;;;5.90;4.40;;;28.60;99.90;;;29.81;nan;100270.78;4995664;28;20669;-67
2023/06/20 06:29:26;;;;;;;4.40;4.00;;;29.10;99.90;;;30.07;nan;100274.69;4981421;28;20669;-68
2023/06/20 06:31:54;;;;;;;8.43;4.87;;;29.40;99.90;;;30.16;nan;100273.22;4983675;28;20630;-68
2023/06/20 06:34:22;;;;;;;9.10;4.53;;;29.50;99.90;;;30.53;nan;100278.91;4966825;28;20654;-68
2023/06/20 06:36:49;;;;;;;4.90;4.13;;;29.80;99.90;;;30.75;nan;100278.94;4982968;28;20638;-69
2023/06/20 06:39:18;;;;;;;6.40;5.20;;;30.10;99.90;;;30.95;nan;100281.88;4992757;28;20650;-68
2023/06/20 06:41:48;;;;;;;5.90;4.40;;;30.30;99.90;;;31.36;nan;100282.09;4965530;28;21431;-67
2023/06/20 06:44:15;;;;;;;7.10;5.03;;;30.70;99.90;;;31.77;nan;100286.00;4972131;28;20633;-68
2023/06/20 06:46:43;;;;;;;6.17;5.57;;;31.10;99.90;;;32.47;nan;100290.34;4973658;28;20651;-68
2023/06/20 06:49:10;;;;;;;6.27;5.67;;;31.80;99.90;;;33.07;nan;100289.81;4995135;28;20670;-69
2023/06/20 06:51:39;;;;;;;4.77;4.30;;;32.40;99.90;;;33.68;nan;100282.66;4990034;28;20746;-68
2023/06/20 06:54:06;;;;;;;5.30;4.80;;;33.00;99.90;;;33.84;nan;100284.31;4990707;28;21204;-68
2023/06/20 06:56:33;;;;;;;6.30;5.27;;;33.20;99.90;;;34.33;nan;100282.66;4992166;28;21134;-69
2023/06/20 06:59:01;;;;;;;5.93;5.33;;;33.70;99.00;;;34.54;nan;100280.72;5005007;28;21216;-68
2023/06/20 07:01:29;;;;;;;5.80;5.23;;;34.00;98.10;;;35.07;nan;100282.69;4992786;28;20987;-69
2023/06/20 07:03:56;;;;;;;6.13;5.27;;;34.50;97.30;;;35.68;nan;100283.94;4990334;28;20638;-69
2023/06/20 07:06:23;;;;;;;5.93;5.33;;;35.00;96.00;;;35.58;nan;100283.19;4984397;28;20663;-68
2023/06/20 07:08:52;;;;;;;7.73;6.13;;;35.10;95.00;;;36.16;nan;100284.09;4984125;28;20641;-68
2023/06/20 07:11:19;;;;;;;5.20;4.73;;;35.50;94.30;;;36.75;nan;100289.16;4994615;28;20638;-67
2023/06/20 07:13:46;;;;;;;8.80;5.73;;;36.10;93.30;;;37.28;nan;100296.06;5002519;28;20688;-68
2023/06/20 07:16:13;;;;;;;5.67;5.10;;;36.70;92.10;;;37.71;nan;100297.63;4992759;28;20680;-67
2023/06/20 07:18:40;;;;;;;6.53;5.40;;;37.10;91.00;;;38.36;nan;100283.97;5007439;28;20601;-68
2023/06/20 07:21:08;;;;;;;5.37;4.87;;;37.60;89.60;;;38.83;nan;100278.16;4990184;28;20638;-68
2023/06/20 07:23:35;;;;;;;6.87;5.70;;;38.10;87.20;;;38.69;nan;100277.38;4989265;28;21146;-66
2023/06/20 07:26:01;;;;;;;5.73;5.20;;;38.20;85.20;;;38.84;nan;100284.41;4991508;28;20665;-67
2023/06/20 07:28:29;;;;;;;4.77;4.37;;;38.30;83.10;;;39.23;nan;100277.28;4990153;28;20638;-68
2023/06/20 07:30:56;;;;;;;6.93;6.13;;;38.50;81.70;;;39.66;nan;100274.09;4984646;28;21033;-67
2023/06/20 07:33:23;;;;;;;6.80;5.93;;;38.90;79.50;;;39.65;nan;100267.03;4989272;28;20634;-67
2023/06/20 07:35:50;;;;;;;5.37;4.90;;;39.00;78.60;;;39.71;nan;100277.53;4998082;28;20753;-66
2023/06/20 07:38:17;;;;;;;5.67;5.20;;;39.00;77.20;;;40.33;nan;100275.63;4990030;28;20618;-67
2023/06/20 07:40:46;;;;;;;8.10;6.10;;;39.50;75.80;;;40.71;nan;100273.19;4996353;28;20662;-68
2023/06/20 07:43:13;;;;;;;5.53;5.03;;;40.00;73.70;;;40.95;nan;100273.59;4989488;28;20622;-68
2023/06/20 07:45:40;;;;;;;6.53;6.03;;;40.30;72.80;;;40.76;nan;100268.38;4989897;28;20650;-66
2023/06/20 07:48:07;;;;;;;6.07;5.57;;;40.40;71.40;;;40.91;nan;100273.41;4990795;28;20614;-70
2023/06/20 07:50:34;;;;;;;6.50;6.00;;;40.40;70.50;;;40.99;nan;100272.66;4989242;28;20666;-68
2023/06/20 07:53:02;;;;;;;6.17;5.67;;;40.50;69.50;;;41.56;nan;100278.78;4991168;28;21299;-68
2023/06/20 07:55:30;;;;;;;5.80;5.30;;;41.00;69.10;;;42.19;nan;100274.50;4989432;28;20686;-68
2023/06/20 07:57:58;;;;;;;5.60;5.20;;;41.60;66.80;;;42.99;nan;100282.50;4991521;28;20619;-68
2023/06/20 08:00:26;;;;;;;5.93;5.53;;;42.30;65.00;;;43.18;nan;100282.03;4989914;28;20645;-69
2023/06/20 08:02:53;;;;;;;5.73;5.30;;;42.70;62.90;;;43.36;nan;100280.78;5001263;28;20621;-69
2023/06/20 08:05:21;;;;;;;5.80;5.30;;;42.80;61.60;;;43.47;nan;100273.72;4991180;28;20684;-68
2023/06/20 08:07:48;;;;;;;6.80;6.20;;;43.00;61.20;;;43.47;nan;100265.47;4991859;28;20637;-69
2023/06/20 08:10:17;;;;;;;6.87;6.37;;;43.00;60.60;;;43.66;nan;100263.06;4995958;28;21354;-68
2023/06/20 08:12:44;;;;;;;5.60;5.20;;;43.20;59.70;;;43.81;nan;100264.38;4997169;28;20650;-67
2023/06/20 08:15:11;;;;;;;5.83;5.33;;;43.30;59.20;;;43.69;nan;100262.38;5000637;28;21582;-68
2023/06/20 08:17:38;;;;;;;6.47;5.93;;;43.40;58.50;;;42.98;nan;100263.59;4989160;28;20637;-69
2023/06/20 08:20:08;;;;;;;5.27;4.87;;;43.10;58.60;;;41.80;nan;100267.34;4988535;28;20634;-68
2023/06/20 08:22:36;;;;;;;6.43;5.90;;;42.00;59.70;;;41.48;nan;100265.09;5000630;28;20628;-69
2023/06/20 08:25:04;;;;;;;6.23;5.60;;;41.30;60.10;;;41.41;nan;100260.13;5000049;28;21011;-67
2023/06/20 08:27:34;;;;;;;6.67;5.30;;;41.10;60.00;;;41.35;nan;100260.59;4997271;28;20623;-68
2023/06/20 08:30:01;;;;;;;11.40;10.20;;;41.00;60.40;;;41.52;nan;100266.88;4993665;28;20678;-66
2023/06/20 08:32:28;;;;;;;8.17;7.40;;;41.20;59.90;;;41.90;nan;100257.94;5001652;28;20681;-66
2023/06/20 08:34:55;;;;;;;6.83;6.13;;;41.40;59.80;;;41.89;nan;100261.84;4991700;28;20676;-72
2023/06/20 08:37:23;;;;;;;5.73;5.33;;;41.60;59.00;;;41.91;nan;100249.44;4974488;28;20650;-68
2023/06/20 08:39:50;;;;;;;5.23;4.83;;;41.60;59.10;;;42.13;nan;100246.47;4989596;28;21018;-69
2023/06/20 08:42:17;;;;;;;6.10;5.60;;;41.80;58.60;;;42.29;nan;100242.03;4980291;28;20642;-68
2023/06/20 08:44:44;;;;;;;6.90;6.33;;;41.80;57.70;;;42.54;nan;100242.25;4995614;28;20668;-67
2023/06/20 08:47:24;;;;;;;5.70;5.30;;;42.10;58.10;;;42.69;nan;100247.16;4991217;28;20642;-67
2023/06/20 08:49:51;;;;;;;6.80;5.17;;;42.30;58.20;;;42.45;nan;100240.38;4990328;28;20665;-68
2023/06/20 08:52:26;;;;;;;5.63;5.23;;;42.10;57.60;;;42.57;nan;100244.34;4990250;28;20634;-67
2023/06/20 08:54:54;;;;;;;6.10;5.60;;;42.10;58.10;;;41.35;nan;100241.44;4985621;28;20723;-68
2023/06/20 08:57:21;;;;;;;6.80;6.20;;;41.50;58.60;;;41.13;nan;100247.03;4973336;28;20619;-66
2023/06/20 08:59:49;;;;;;;5.80;5.33;;;40.80;59.30;;;41.35;nan;100238.69;4991668;28;20708;-67
2023/06/20 09:02:16;;;;;;;5.90;5.50;;;40.90;59.40;;;41.77;nan;100235.09;4994986;28;21220;-67
2023/06/20 09:04:43;;;;;;;6.67;6.17;;;41.30;58.00;;;41.83;nan;100239.28;4988421;28;20669;-67
2023/06/20 09:07:18;;;;;;;6.50;6.00;;;41.40;57.40;;;42.60;nan;100238.16;4986970;28;20630;-66
2023/06/20 09:09:45;;;;;;;5.50;5.10;;;42.10;56.90;;;43.88;nan;100248.09;4989988;28;20665;-68
2023/06/20 09:12:13;;;;;;;6.57;5.97;;;43.20;55.80;;;43.83;nan;100234.59;4972451;28;20634;-67
2023/06/20 09:14:40;;;;;;;5.87;5.47;;;43.70;55.00;;;43.93;nan;100243.22;4983396;28;20669;-67
2023/06/20 09:17:09;;;;;;;6.73;6.13;;;43.70;54.30;;;43.54;nan;100238.28;4998111;28;20613;-66
2023/06/20 09:19:43;;;;;;;9.53;8.73;;;43.40;54.90;;;43.02;nan;100237.13;4984646;28;21260;-66
2023/06/20 09:22:15;;;;;;;7.17;6.67;;;42.90;54.70;;;43.65;nan;100231.25;4990928;28;20625;-67
2023/06/20 09:24:45;;;;;;;5.50;5.10;;;43.30;54.70;;;43.62;nan;100229.13;4994320;28;21020;-67
2023/06/20 09:27:13;;;;;;;5.33;5.03;;;43.50;53.90;;;43.29;nan;100220.09;4991335;28;20640;-68
2023/06/20 09:29:51;;;;;;;5.70;5.30;;;43.10;53.90;;;43.00;nan;100226.44;4989401;28;20637;-67
2023/06/20 09:32:21;;;;;;;5.30;4.90;;;42.80;53.80;;;42.49;nan;100217.78;4997538;28;20636;-67
2023/06/20 09:34:50;;;;;;;6.93;6.43;;;42.30;54.40;;;42.14;nan;100215.19;5006468;28;21250;-67
2023/06/20 09:37:18;;;;;;;5.50;5.20;;;42.00;54.80;;;42.47;nan;100225.53;4975497;28;20650;-67
2023/06/20 09:39:46;;;;;;;5.30;4.90;;;42.10;54.00;;;43.26;nan;100223.50;4989470;28;20722;-67
2023/06/20 09:42:14;;;;;;;5.67;5.27;;;42.80;53.80;;;44.21;nan;100223.31;4987938;28;21043;-66
2023/06/20 09:44:41;;;;;;;7.57;6.97;;;43.50;52.70;;;45.33;nan;100224.06;5002841;28;20676;-66
2023/06/20 09:47:09;;;;;;;6.00;5.63;;;44.70;51.90;;;46.26;nan;100224.53;4994559;28;20645;-67
2023/06/20 09:49:39;;;;;;;6.07;5.67;;;45.70;50.90;;;46.78;nan;100224.97;4969273;28;20642;-67
2023/06/20 09:52:14;;;;;;;5.73;5.43;;;46.40;49.60;;;45.46;nan;100232.25;4982567;28;20625;-67
2023/06/20 09:54:44;;;;;;;6.70;6.23;;;45.50;48.90;;;45.48;nan;100236.25;4973378;28;21294;-68
2023/06/20 09:57:16;;;;;;;5.10;4.70;;;45.20;49.00;;;44.98;nan;100228.50;4969146;28;20610;-67
2023/06/20 09:59:46;;;;;;;5.57;5.17;;;45.00;49.00;;;44.53;nan;100225.16;4966328;28;20632;-69
2023/06/20 10:02:15;;;;;;;5.47;5.10;;;44.30;50.30;;;44.17;nan;100212.19;4992683;28;20638;-68
2023/06/20 10:04:44;;;;;;;5.10;4.80;;;43.80;51.40;;;43.13;nan;100219.06;4971882;28;21252;-68
2023/06/20 10:07:15;;;;;;;5.33;5.00;;;42.80;52.20;;;42.72;nan;100213.59;4975370;28;21121;-68
2023/06/20 10:09:43;;;;;;;3.43;3.17;;;42.10;53.00;;;42.13;nan;100194.38;4998915;28;20641;-68
2023/06/20 10:12:11;;;;;;;4.90;4.50;;;41.40;53.60;;;41.45;nan;100202.75;4998112;28;20979;-68
2023/06/20 10:14:39;;;;;;;5.23;4.80;;;40.60;53.60;;;40.36;nan;100200.41;4999509;28;20657;-67
2023/06/20 10:17:12;;;;;;;7.33;6.63;;;39.60;54.80;;;39.78;nan;100193.22;4992101;28;20642;-68
2023/06/20 10:19:51;;;;;;;5.07;4.67;;;38.90;56.00;;;39.23;nan;100192.66;4995741;28;20605;-67
2023/06/20 10:22:33;;;;;;;5.37;4.90;;;38.40;56.60;;;38.41;nan;100194.78;5010783;28;20632;-67
2023/06/20 10:25:14;;;;;;;4.23;3.90;;;37.60;57.00;;;37.82;nan;100187.44;5001035;28;20660;-65
2023/06/20 10:27:54;;;;;;;5.67;4.50;;;37.10;57.20;;;37.16;nan;100184.19;4992737;28;20617;-67
2023/06/20 10:30:46;;;;;;;2.90;2.70;;;36.60;57.70;;;36.42;nan;100191.16;4995804;28;20673;-67
2023/06/20 10:33:13;;;;;;;5.27;4.60;;;35.80;58.30;;;35.84;nan;100184.19;4992513;28;20611;-67